createdAt,value
2022-08-17T00:01:52.589Z,21.70
2022-08-17T00:04:23.803Z,21.70
2022-08-17T00:06:53.347Z,21.70
2022-08-17T00:09:21.507Z,21.70
2022-08-17T00:12:42.248Z,21.70
2022-08-17T00:14:39.992Z,21.80
2022-08-17T00:17:08.636Z,21.70
2022-08-17T00:19:38.230Z,21.70
2022-08-17T00:22:31.815Z,21.70
2022-08-17T00:24:56.243Z,21.60
2022-08-17T00:27:25.166Z,21.60
2022-08-17T00:29:53.410Z,21.60
2022-08-17T00:33:15.711Z,21.60
2022-08-17T00:35:14.201Z,21.60
2022-08-17T00:37:43.023Z,21.60
2022-08-17T00:40:14.433Z,21.70
2022-08-17T00:42:44.109Z,21.60
2022-08-17T00:45:20.448Z,21.70
2022-08-17T00:47:49.693Z,21.60
2022-08-17T00:50:20.416Z,21.50
2022-08-17T00:52:58.830Z,21.40
2022-08-17T00:55:28.233Z,21.30
2022-08-17T00:58:01.453Z,21.30
2022-08-17T01:00:32.091Z,21.20
2022-08-17T01:03:06.548Z,21.20
2022-08-17T01:05:42.084Z,21.20
2022-08-17T01:08:14.727Z,21.30
2022-08-17T01:10:57.213Z,21.30
2022-08-17T01:13:35.488Z,21.30
2022-08-17T01:16:12.904Z,21.40
2022-08-17T01:18:42.477Z,21.40
2022-08-17T01:21:19.443Z,21.40
2022-08-17T01:23:49.469Z,21.40
2022-08-17T01:26:18.854Z,21.30
2022-08-17T01:28:54.048Z,21.30
2022-08-17T01:31:25.699Z,21.30
2022-08-17T01:33:54.066Z,21.30
2022-08-17T01:36:22.917Z,21.20
2022-08-17T01:38:52.883Z,21.30
2022-08-17T01:41:23.710Z,21.30
2022-08-17T01:43:56.082Z,21.30
2022-08-17T01:46:28.271Z,21.30
2022-08-17T01:48:58.008Z,21.20
2022-08-17T01:51:29.408Z,21.20
2022-08-17T01:54:01.741Z,21.30
2022-08-17T01:56:32.308Z,21.30
2022-08-17T01:59:00.975Z,21.20
2022-08-17T02:01:32.816Z,21.30
2022-08-17T02:04:02.127Z,21.30
2022-08-17T02:06:45.106Z,21.20
2022-08-17T02:09:16.639Z,21.30
2022-08-17T02:11:46.528Z,21.40
2022-08-17T02:14:15.615Z,21.40
2022-08-17T02:16:44.147Z,21.30
2022-08-17T02:19:15.700Z,21.30
2022-08-17T02:21:46.807Z,21.30
2022-08-17T02:24:58.366Z,21.30
2022-08-17T02:27:09.409Z,21.20
2022-08-17T02:29:38.255Z,21.10
2022-08-17T02:32:07.047Z,21.00
2022-08-17T02:34:35.634Z,20.90
2022-08-17T02:37:03.884Z,20.90
2022-08-17T02:39:33.404Z,20.90
2022-08-17T02:42:02.800Z,20.90
2022-08-17T02:44:39.294Z,20.90
2022-08-17T02:47:10.084Z,20.90
2022-08-17T02:49:38.784Z,21.00
2022-08-17T02:52:09.045Z,20.90
2022-08-17T02:54:42.239Z,20.90
2022-08-17T02:57:11.154Z,20.80
2022-08-17T02:59:39.753Z,20.90
2022-08-17T03:02:11.163Z,20.90
2022-08-17T03:04:39.616Z,20.80
2022-08-17T03:07:07.995Z,20.80
2022-08-17T03:09:36.533Z,20.80
2022-08-17T03:12:12.244Z,20.80
2022-08-17T03:14:41.872Z,20.80
2022-08-17T03:17:12.768Z,20.90
2022-08-17T03:19:46.266Z,20.90
2022-08-17T03:22:35.458Z,20.90
2022-08-17T03:25:02.956Z,20.80
2022-08-17T03:27:33.501Z,20.80
2022-08-17T03:30:01.640Z,20.80
2022-08-17T03:32:30.363Z,20.70
2022-08-17T03:35:04.897Z,20.70
2022-08-17T03:37:34.543Z,20.70
2022-08-17T03:40:05.829Z,20.70
2022-08-17T03:42:38.252Z,20.70
2022-08-17T03:45:08.507Z,20.70
2022-08-17T03:47:54.303Z,20.60
2022-08-17T03:50:40.159Z,20.60
2022-08-17T03:53:28.381Z,20.60
2022-08-17T03:56:17.373Z,20.50
2022-08-17T03:58:48.247Z,20.50
2022-08-17T04:01:16.901Z,20.60
2022-08-17T04:03:45.233Z,20.50
2022-08-17T04:06:13.569Z,20.50
2022-08-17T04:08:41.853Z,20.40
2022-08-17T04:11:10.949Z,20.30
2022-08-17T04:13:39.323Z,20.30
2022-08-17T04:16:09.327Z,20.50
2022-08-17T04:18:37.500Z,20.50
2022-08-17T04:21:05.953Z,20.60
2022-08-17T04:23:36.586Z,20.50
2022-08-17T04:26:05.448Z,20.70
2022-08-17T04:28:33.692Z,20.70
2022-08-17T04:31:02.053Z,20.80
2022-08-17T04:33:32.251Z,20.80
2022-08-17T04:36:02.357Z,20.70
2022-08-17T04:38:33.965Z,20.70
2022-08-17T04:41:20.082Z,20.70
2022-08-17T04:43:50.157Z,20.60
2022-08-17T04:46:21.220Z,20.60
2022-08-17T04:48:54.984Z,20.60
2022-08-17T04:51:26.227Z,20.70
2022-08-17T04:53:57.150Z,20.70
2022-08-17T04:56:27.475Z,20.80
2022-08-17T04:58:58.040Z,20.80
2022-08-17T05:01:28.126Z,20.80
2022-08-17T05:04:00.289Z,20.80
2022-08-17T05:06:49.684Z,20.80
2022-08-17T05:09:18.822Z,20.80
2022-08-17T05:11:47.625Z,21.00
2022-08-17T05:14:16.321Z,21.00
2022-08-17T05:16:46.031Z,21.00
2022-08-17T05:19:15.549Z,20.90
2022-08-17T05:21:43.840Z,20.80
2022-08-17T05:24:38.407Z,20.80
2022-08-17T05:27:06.663Z,20.80
2022-08-17T05:29:36.025Z,20.90
2022-08-17T05:32:38.922Z,20.90
2022-08-17T05:35:00.748Z,21.00
2022-08-17T05:37:29.289Z,20.90
2022-08-17T05:39:57.696Z,20.90
2022-08-17T05:42:26.248Z,20.80
2022-08-17T05:44:57.841Z,20.70
2022-08-17T05:47:28.007Z,20.80
2022-08-17T05:49:56.445Z,20.70
2022-08-17T05:52:34.820Z,20.80
2022-08-17T05:55:13.711Z,20.80
2022-08-17T05:57:53.536Z,20.80
2022-08-17T06:00:26.334Z,20.80
2022-08-17T06:03:27.314Z,20.90
2022-08-17T06:06:17.270Z,21.00
2022-08-17T06:08:52.444Z,21.10
2022-08-17T06:11:26.652Z,21.10
2022-08-17T06:14:15.326Z,20.90
2022-08-17T06:16:46.688Z,20.90
2022-08-17T06:19:20.088Z,21.00
2022-08-17T06:21:52.139Z,21.10
2022-08-17T06:24:28.994Z,21.20
2022-08-17T06:27:11.186Z,21.30
2022-08-17T06:29:46.313Z,21.30
2022-08-17T06:32:15.146Z,21.30
2022-08-17T06:34:45.216Z,21.30
2022-08-17T06:37:31.252Z,21.20
2022-08-17T06:40:15.811Z,21.20
2022-08-17T06:43:02.136Z,21.40
2022-08-17T06:45:40.108Z,21.40
2022-08-17T06:48:15.593Z,21.40
2022-08-17T06:50:48.988Z,21.50
2022-08-17T06:53:25.313Z,21.50
2022-08-17T06:56:00.624Z,21.50
2022-08-17T06:58:31.686Z,21.50
2022-08-17T07:01:07.466Z,21.70
2022-08-17T07:03:39.006Z,21.80
2022-08-17T07:06:12.310Z,21.80
2022-08-17T07:08:50.745Z,21.80
2022-08-17T07:11:37.279Z,21.90
2022-08-17T07:14:28.506Z,21.90
2022-08-17T07:16:59.491Z,21.90
2022-08-17T07:19:32.449Z,22.00
2022-08-17T07:22:08.575Z,22.00
2022-08-17T07:24:45.364Z,22.00
2022-08-17T07:27:18.206Z,22.10
2022-08-17T07:29:50.695Z,22.10
2022-08-17T07:32:24.279Z,22.10
2022-08-17T07:35:15.679Z,22.10
2022-08-17T07:37:53.212Z,22.10
2022-08-17T07:40:33.583Z,22.10
2022-08-17T07:43:22.239Z,22.30
2022-08-17T07:46:33.902Z,22.30
2022-08-17T07:49:22.100Z,22.20
2022-08-17T07:52:48.128Z,22.20
2022-08-17T07:54:54.579Z,22.20
2022-08-17T07:57:33.551Z,22.20
2022-08-17T08:00:19.558Z,22.30
2022-08-17T08:03:18.466Z,22.50
2022-08-17T08:05:57.626Z,22.50
2022-08-17T08:08:34.295Z,22.60
2022-08-17T08:11:07.300Z,22.70
2022-08-17T08:13:40.678Z,22.70
2022-08-17T08:16:30.226Z,22.80
2022-08-17T08:19:01.914Z,22.80
2022-08-17T08:21:39.273Z,22.70
2022-08-17T08:24:30.024Z,22.70
2022-08-17T08:27:10.256Z,22.80
2022-08-17T08:29:45.443Z,22.80
2022-08-17T08:32:21.362Z,22.60
2022-08-17T08:35:03.371Z,22.60
2022-08-17T08:37:43.209Z,22.60
2022-08-17T08:40:26.971Z,22.40
2022-08-17T08:43:06.784Z,22.50
2022-08-17T08:45:46.966Z,22.40
2022-08-17T08:48:52.976Z,22.40
2022-08-17T08:51:23.622Z,22.40
2022-08-17T08:54:03.300Z,22.50
2022-08-17T08:56:39.701Z,22.50
2022-08-17T08:59:18.029Z,22.50
2022-08-17T09:01:55.991Z,22.60
2022-08-17T09:05:12.956Z,22.70
2022-08-17T09:07:49.198Z,22.60
2022-08-17T09:10:25.494Z,22.50
2022-08-17T09:13:10.198Z,22.60
2022-08-17T09:15:43.661Z,22.50
2022-08-17T09:18:59.409Z,22.60
2022-08-17T09:21:11.504Z,22.60
2022-08-17T09:23:49.601Z,22.70
2022-08-17T09:26:22.959Z,22.80
2022-08-17T09:28:52.480Z,23.00
2022-08-17T09:31:27.688Z,23.10
2022-08-17T09:34:02.423Z,23.10
2022-08-17T09:36:34.620Z,23.20
2022-08-17T09:39:16.411Z,23.20
2022-08-17T09:41:51.664Z,23.20
2022-08-17T09:44:29.292Z,23.30
2022-08-17T09:47:05.915Z,23.40
2022-08-17T09:49:42.824Z,23.50
2022-08-17T09:52:18.484Z,23.60
2022-08-17T09:54:49.635Z,23.60
2022-08-17T09:57:32.130Z,23.50
2022-08-17T10:00:23.844Z,23.40
2022-08-17T10:03:26.151Z,23.30
2022-08-17T10:06:00.266Z,23.30
2022-08-17T10:08:37.463Z,23.30
2022-08-17T10:11:19.733Z,23.40
2022-08-17T10:13:58.743Z,23.40
2022-08-17T10:16:38.487Z,23.40
2022-08-17T10:19:20.726Z,23.30
2022-08-17T10:22:32.461Z,23.30
2022-08-17T10:25:23.776Z,23.30
2022-08-17T10:27:59.782Z,23.30
2022-08-17T10:30:32.296Z,23.30
2022-08-17T10:33:03.898Z,23.30
2022-08-17T10:35:44.336Z,23.50
2022-08-17T10:38:38.833Z,23.40
2022-08-17T10:41:27.818Z,23.40
2022-08-17T10:44:37.959Z,23.40
2022-08-17T10:47:04.531Z,23.30
2022-08-17T10:49:35.124Z,23.20
2022-08-17T10:52:06.118Z,23.20
2022-08-17T10:54:47.326Z,23.30
2022-08-17T10:57:37.533Z,23.20
2022-08-17T11:00:15.176Z,23.20
2022-08-17T11:02:52.456Z,23.20
2022-08-17T11:05:47.074Z,23.20
2022-08-17T11:08:30.885Z,23.00
2022-08-17T11:11:43.136Z,23.00
2022-08-17T11:14:33.200Z,23.10
2022-08-17T11:17:19.924Z,23.10
2022-08-17T11:20:19.701Z,23.10
2022-08-17T11:23:29.796Z,23.00
2022-08-17T11:26:04.123Z,23.00
2022-08-17T11:28:35.994Z,23.00
2022-08-17T11:31:10.888Z,23.20
2022-08-17T11:34:03.639Z,23.30
2022-08-17T11:36:53.639Z,23.20
2022-08-17T11:39:45.999Z,23.30
2022-08-17T11:42:29.868Z,23.30
2022-08-17T11:45:00.541Z,23.20
2022-08-17T11:48:23.594Z,23.30
2022-08-17T11:51:11.463Z,23.50
2022-08-17T11:54:31.228Z,23.30
2022-08-17T11:56:53.003Z,23.10
2022-08-17T11:59:59.823Z,23.00
2022-08-17T12:02:48.122Z,22.90
2022-08-17T12:05:35.389Z,22.90
2022-08-17T12:08:18.588Z,22.40
2022-08-17T12:11:04.602Z,22.20
2022-08-17T12:13:39.501Z,22.10
2022-08-17T12:16:10.111Z,21.80
2022-08-17T12:18:39.874Z,21.40
2022-08-17T12:21:37.775Z,21.00
2022-08-17T12:24:16.816Z,20.70
2022-08-17T12:26:53.330Z,20.50
2022-08-17T12:29:35.411Z,20.40
2022-08-17T12:32:14.140Z,20.40
2022-08-17T12:34:44.531Z,20.30
2022-08-17T12:37:16.593Z,20.40
2022-08-17T12:39:53.395Z,20.50
2022-08-17T12:42:31.183Z,20.60
2022-08-17T12:45:00.216Z,20.70
2022-08-17T12:47:30.105Z,20.80
2022-08-17T12:50:29.144Z,20.70
2022-08-17T12:53:01.951Z,20.80
2022-08-17T12:55:39.049Z,20.80
2022-08-17T12:58:14.521Z,20.90
2022-08-17T13:00:50.015Z,21.00
2022-08-17T13:03:21.003Z,21.00
2022-08-17T13:05:58.232Z,21.10
2022-08-17T13:08:32.520Z,21.20
2022-08-17T13:11:04.863Z,21.40
2022-08-17T13:13:35.324Z,21.70
2022-08-17T13:16:06.259Z,21.90
2022-08-17T13:18:41.829Z,21.90
2022-08-17T13:21:18.913Z,21.90
2022-08-17T13:23:57.051Z,22.10
2022-08-17T13:26:31.475Z,22.20
2022-08-17T13:29:00.551Z,22.50
2022-08-17T13:31:52.167Z,22.70
2022-08-17T13:34:56.163Z,22.80
2022-08-17T13:37:32.753Z,22.80
2022-08-17T13:40:05.475Z,22.60
2022-08-17T13:42:52.296Z,22.50
2022-08-17T13:45:53.281Z,22.50
2022-08-17T13:48:25.195Z,22.30
2022-08-17T13:51:08.378Z,22.30
2022-08-17T13:53:55.521Z,22.00
2022-08-17T13:56:40.009Z,22.00
2022-08-17T13:59:12.846Z,21.90
2022-08-17T14:01:43.183Z,21.90
2022-08-17T14:04:13.891Z,21.90
2022-08-17T14:06:51.888Z,22.10
2022-08-17T14:09:25.109Z,22.20
2022-08-17T14:11:54.515Z,22.20
2022-08-17T14:14:24.556Z,22.20
2022-08-17T14:16:52.917Z,22.20
2022-08-17T14:19:22.995Z,22.30
2022-08-17T14:21:51.849Z,22.20
2022-08-17T14:24:25.265Z,22.20
2022-08-17T14:26:54.242Z,22.40
2022-08-17T14:29:26.120Z,22.50
2022-08-17T14:31:54.905Z,22.40
2022-08-17T14:34:23.697Z,22.30
2022-08-17T14:36:52.683Z,22.30
2022-08-17T14:39:21.481Z,22.40
2022-08-17T14:41:50.039Z,22.50
2022-08-17T14:44:18.213Z,22.70
2022-08-17T14:46:48.112Z,22.80
2022-08-17T14:49:17.218Z,23.00
2022-08-17T14:51:45.417Z,23.00
2022-08-17T14:54:32.952Z,23.00
2022-08-17T14:57:24.658Z,23.10
2022-08-17T14:59:54.932Z,23.20
2022-08-17T15:02:29.688Z,23.30
2022-08-17T15:05:02.007Z,23.40
2022-08-17T15:07:31.179Z,23.50
2022-08-17T15:10:01.343Z,23.60
2022-08-17T15:12:34.724Z,23.70
2022-08-17T15:15:04.808Z,23.70
2022-08-17T15:17:44.376Z,23.80
2022-08-17T15:20:17.192Z,23.90
2022-08-17T15:22:49.726Z,23.80
2022-08-17T15:25:20.099Z,23.90
2022-08-17T15:27:48.460Z,23.90
2022-08-17T15:30:17.338Z,23.90
2022-08-17T15:32:54.557Z,23.90
2022-08-17T15:35:28.026Z,23.90
2022-08-17T15:38:06.116Z,23.90
2022-08-17T15:40:41.115Z,24.00
2022-08-17T15:43:11.602Z,24.20
2022-08-17T15:45:40.619Z,24.20
2022-08-17T15:48:10.893Z,24.30
2022-08-17T15:50:39.131Z,24.30
2022-08-17T15:53:07.245Z,24.40
2022-08-17T15:55:36.870Z,24.40
2022-08-17T15:58:07.789Z,24.40
2022-08-17T16:00:49.432Z,24.60
2022-08-17T16:03:57.422Z,24.50
2022-08-17T16:06:15.554Z,24.60
2022-08-17T16:08:45.611Z,24.70
2022-08-17T16:11:15.430Z,24.80
2022-08-17T16:13:54.870Z,24.90
2022-08-17T16:16:24.863Z,24.80
2022-08-17T16:18:58.377Z,25.00
2022-08-17T16:21:27.675Z,25.20
2022-08-17T16:23:58.026Z,25.20
2022-08-17T16:26:27.600Z,25.10
2022-08-17T16:28:56.472Z,25.00
2022-08-17T16:31:25.200Z,25.00
2022-08-17T16:34:16.347Z,25.00
2022-08-17T16:36:54.658Z,25.00
2022-08-17T16:39:24.398Z,24.90
2022-08-17T16:41:52.756Z,25.00
2022-08-17T16:44:22.052Z,24.90
2022-08-17T16:46:51.251Z,24.80
2022-08-17T16:49:35.404Z,24.70
2022-08-17T16:52:06.227Z,24.50
2022-08-17T16:54:35.641Z,24.40
2022-08-17T16:57:05.326Z,24.30
2022-08-17T16:59:41.006Z,24.20
2022-08-17T17:02:16.201Z,24.10
2022-08-17T17:04:52.911Z,24.10
2022-08-17T17:07:41.556Z,24.10
2022-08-17T17:10:12.137Z,24.10
2022-08-17T17:13:01.429Z,24.10
2022-08-17T17:15:44.740Z,24.00
2022-08-17T17:18:15.595Z,24.00
2022-08-17T17:20:50.863Z,24.00
2022-08-17T17:23:34.581Z,24.00
2022-08-17T17:26:12.765Z,23.90
2022-08-17T17:28:51.049Z,23.90
2022-08-17T17:31:23.758Z,23.90
2022-08-17T17:33:57.154Z,23.90
2022-08-17T17:36:28.862Z,23.70
2022-08-17T17:39:04.124Z,23.70
2022-08-17T17:41:38.103Z,23.60
2022-08-17T17:44:12.906Z,23.30
2022-08-17T17:46:49.255Z,23.30
2022-08-17T17:49:18.365Z,23.20
2022-08-17T17:52:10.125Z,23.10
2022-08-17T17:54:54.159Z,23.00
2022-08-17T17:57:30.773Z,22.90
2022-08-17T18:00:08.202Z,22.80
2022-08-17T18:02:51.480Z,22.80
2022-08-17T18:05:35.119Z,22.80
2022-08-17T18:08:14.776Z,22.60
2022-08-17T18:11:04.765Z,22.50
2022-08-17T18:13:43.915Z,22.50
2022-08-17T18:16:15.122Z,22.50
2022-08-17T18:18:44.789Z,22.50
2022-08-17T18:21:19.613Z,22.40
2022-08-17T18:23:53.403Z,22.40
2022-08-17T18:26:44.989Z,22.40
2022-08-17T18:29:43.531Z,22.30
2022-08-17T18:32:19.866Z,22.30
2022-08-17T18:34:50.497Z,22.20
2022-08-17T18:37:36.247Z,22.20
2022-08-17T18:40:29.624Z,22.10
2022-08-17T18:43:09.966Z,22.00
2022-08-17T18:45:45.365Z,21.90
2022-08-17T18:48:26.976Z,21.80
2022-08-17T18:50:57.723Z,21.70
2022-08-17T18:53:47.004Z,21.70
2022-08-17T18:56:31.307Z,21.60
2022-08-17T18:59:35.184Z,21.60
2022-08-17T19:02:45.824Z,21.50
2022-08-17T19:05:14.749Z,21.40
2022-08-17T19:07:45.260Z,21.30
2022-08-17T19:10:22.838Z,21.30
2022-08-17T19:13:00.333Z,21.20
2022-08-17T19:15:39.985Z,21.20
2022-08-17T19:18:15.965Z,21.20
2022-08-17T19:20:48.226Z,21.20
2022-08-17T19:23:22.294Z,21.10
2022-08-17T19:25:52.830Z,21.10
2022-08-17T19:28:26.002Z,21.10
2022-08-17T19:30:59.523Z,21.10
2022-08-17T19:33:27.964Z,21.00
2022-08-17T19:36:04.534Z,21.00
2022-08-17T19:38:46.867Z,20.90
2022-08-17T19:41:23.758Z,20.90
2022-08-17T19:44:19.649Z,20.90
2022-08-17T19:46:56.215Z,20.80
2022-08-17T19:49:46.682Z,20.80
2022-08-17T19:52:34.664Z,20.70
2022-08-17T19:55:10.220Z,20.70
2022-08-17T19:57:47.791Z,20.60
2022-08-17T20:00:19.351Z,20.50
2022-08-17T20:02:56.198Z,20.50
2022-08-17T20:05:28.537Z,20.50
2022-08-17T20:08:01.797Z,20.60
2022-08-17T20:10:40.709Z,20.60
2022-08-17T20:13:12.437Z,20.50
2022-08-17T20:15:44.008Z,20.60
2022-08-17T20:18:21.073Z,20.60
2022-08-17T20:20:59.698Z,20.60
2022-08-17T20:23:40.296Z,20.50
2022-08-17T20:26:19.422Z,20.50
2022-08-17T20:29:31.895Z,20.50
2022-08-17T20:32:28.055Z,20.30
2022-08-17T20:35:10.439Z,20.30
2022-08-17T20:37:44.477Z,20.10
2022-08-17T20:40:20.583Z,20.10
2022-08-17T20:42:49.027Z,20.10
2022-08-17T20:45:57.774Z,20.10
2022-08-17T20:48:38.303Z,20.20
2022-08-17T20:51:32.943Z,20.20
2022-08-17T20:54:06.706Z,20.20
2022-08-17T20:56:58.627Z,20.20
2022-08-17T20:59:56.406Z,20.20
2022-08-17T21:02:27.322Z,20.10
2022-08-17T21:05:22.923Z,20.10
2022-08-17T21:07:58.947Z,20.10
2022-08-17T21:10:36.528Z,20.10
2022-08-17T21:13:39.276Z,20.00
2022-08-17T21:16:24.096Z,20.00
2022-08-17T21:18:59.076Z,19.90
2022-08-17T21:21:33.819Z,19.90
2022-08-17T21:24:19.448Z,19.90
2022-08-17T21:26:57.730Z,19.80
2022-08-17T21:29:32.315Z,19.90
2022-08-17T21:32:23.733Z,19.90
2022-08-17T21:35:32.743Z,19.90
2022-08-17T21:38:15.020Z,19.80
2022-08-17T21:40:49.998Z,19.70
2022-08-17T21:43:24.595Z,19.70
2022-08-17T21:45:59.808Z,19.70
2022-08-17T21:48:29.655Z,19.60
2022-08-17T21:51:01.789Z,19.70
2022-08-17T21:53:38.465Z,19.70
2022-08-17T21:56:07.738Z,19.60
2022-08-17T21:58:40.397Z,19.60
2022-08-17T22:01:24.702Z,19.60
2022-08-17T22:03:59.695Z,19.50
2022-08-17T22:06:30.713Z,19.50
2022-08-17T22:09:18.104Z,19.50
2022-08-17T22:11:53.389Z,19.60
2022-08-17T22:14:23.818Z,19.40
2022-08-17T22:17:08.493Z,19.40
2022-08-17T22:19:38.716Z,19.40
2022-08-17T22:22:09.117Z,19.40
2022-08-17T22:24:39.605Z,19.30
2022-08-17T22:27:11.064Z,19.30
2022-08-17T22:29:57.509Z,19.30
2022-08-17T22:32:50.447Z,19.20
2022-08-17T22:35:38.077Z,19.20
2022-08-17T22:38:32.178Z,19.10
2022-08-17T22:41:19.048Z,19.10
2022-08-17T22:43:49.144Z,19.10
2022-08-17T22:46:22.098Z,19.00
2022-08-17T22:48:53.448Z,19.00
2022-08-17T22:51:24.611Z,19.00
2022-08-17T22:54:12.645Z,19.00
2022-08-17T22:57:07.230Z,18.90
2022-08-17T22:59:46.712Z,19.00
2022-08-17T23:02:22.550Z,18.90
2022-08-17T23:04:53.730Z,18.90
2022-08-17T23:07:22.428Z,18.90
2022-08-17T23:09:52.343Z,18.80
2022-08-17T23:12:26.442Z,18.80
2022-08-17T23:15:01.778Z,18.80
2022-08-17T23:17:47.135Z,18.80
2022-08-17T23:20:17.788Z,18.80
2022-08-17T23:22:51.834Z,18.70
2022-08-17T23:25:28.252Z,18.70
2022-08-17T23:28:01.560Z,18.70
2022-08-17T23:30:33.060Z,18.60
2022-08-17T23:33:04.987Z,18.70
2022-08-17T23:35:40.539Z,18.60
2022-08-17T23:38:10.360Z,18.70
2022-08-17T23:40:40.101Z,18.70
2022-08-17T23:43:17.559Z,18.70
2022-08-17T23:45:55.319Z,18.70
2022-08-17T23:48:36.010Z,18.70
2022-08-17T23:51:09.862Z,18.70
2022-08-17T23:53:41.988Z,18.70
2022-08-17T23:56:11.760Z,18.70
2022-08-17T23:58:42.311Z,18.80
